This is the latest recevied weather packets stored in our database for station/object SQ9SMC-13. If no packets are shown the sender has not sent any weather packets the latest 10 day(s).
| Time | Temp. | Humidity | Pressure | Rain* | Wind** | Luminosity | Snow |
|---|---|---|---|---|---|---|---|
| 1777894503 | 25° C | 32% | 1015.8 hPa | 0 mm | - | 663 W/m² | - |
| 1777894203 | 25° C | 33% | 1015.7 hPa | 0 mm | - | 578 W/m² | - |
| 1777893905 | 25° C | 33% | 1015.8 hPa | 0 mm | - | 559 W/m² | - |
| 1777893604 | 25.56° C | 33% | 1015.7 hPa | 0 mm | - | 549 W/m² | - |
| 1777893303 | 25° C | 33% | 1015.9 hPa | 0 mm | - | 539 W/m² | - |
| 1777893003 | 25.56° C | 33% | 1015.9 hPa | 0 mm | - | 595 W/m² | - |
| 1777892703 | 25° C | 33% | 1016 hPa | 0 mm | - | 610 W/m² | - |
| 1777892402 | 25.56° C | 33% | 1016 hPa | 0 mm | - | 654 W/m² | - |
| 1777892103 | 25° C | 34% | 1016.1 hPa | 0 mm | - | 649 W/m² | - |
| 1777891803 | 25° C | 34% | 1016 hPa | 0 mm | - | 665 W/m² | - |
| 1777891502 | 24.44° C | 35% | 1016.1 hPa | 0 mm | - | 695 W/m² | - |
| 1777891204 | 23.89° C | 35% | 1016.2 hPa | 0 mm | - | 580 W/m² | - |
| 1777890903 | 23.33° C | 36% | 1016.3 hPa | 0 mm | - | 444 W/m² | - |
| 1777890602 | 23.33° C | 35% | 1016.5 hPa | 0 mm | - | 335 W/m² | - |
| 1777890304 | 23.89° C | 35% | 1016.4 hPa | 0 mm | - | 215 W/m² | - |
| 1777890003 | 23.89° C | 35% | 1016.5 hPa | 0 mm | - | 431 W/m² | - |
| 1777889703 | 23.89° C | 34% | 1016.7 hPa | 0 mm | - | 612 W/m² | - |
| 1777889403 | 23.89° C | 35% | 1016.7 hPa | 0 mm | - | 608 W/m² | - |
| 1777889103 | 23.89° C | 35% | 1016.5 hPa | 0 mm | - | 579 W/m² | - |
| 1777888803 | 23.33° C | 36% | 1016.7 hPa | 0 mm | - | 649 W/m² | - |
| 1777888503 | 23.33° C | 35% | 1016.7 hPa | 0 mm | - | 556 W/m² | - |
| 1777888204 | 23.33° C | 36% | 1016.9 hPa | 0 mm | - | 562 W/m² | - |
| 1777887903 | 23.33° C | 36% | 1016.9 hPa | 0 mm | - | 573 W/m² | - |
| 1777887603 | 23.89° C | 35% | 1016.9 hPa | 0 mm | - | 584 W/m² | - |
| 1777887304 | 23.33° C | 36% | 1017 hPa | 0 mm | - | 611 W/m² | - |
* Rain latest hour (hover to see other rain measurements)
** Current wind speed in m/s (hover to see current wind gust speed)